TimeEST,TemperatureF,Dew PointF,Humidity,Sea Level PressureIn,VisibilityMPH,Wind Direction,Wind SpeedMPH,Gust SpeedMPH,PrecipitationIn,Events,Conditions,WindDirDegrees,DateUTC
12:53 AM,68.0,64.9,90,30.07,10.0,North,3.5,-,0.00,,Overcast,350,2012-12-15 05:53:00
1:53 AM,68.0,64.9,90,30.05,10.0,NNW,3.5,-,N/A,,Mostly Cloudy,330,2012-12-15 06:53:00
2:53 AM,66.9,64.9,93,30.04,10.0,NNW,4.6,-,N/A,,Mostly Cloudy,330,2012-12-15 07:53:00
3:53 AM,66.9,64.9,93,30.04,9.0,NNW,4.6,-,N/A,,Mostly Cloudy,330,2012-12-15 08:53:00
4:53 AM,66.9,64.9,93,30.04,10.0,NW,4.6,-,0.00,,Mostly Cloudy,310,2012-12-15 09:53:00
5:53 AM,68.0,66.0,93,30.06,10.0,Calm,Calm,-,0.00,,Overcast,0,2012-12-15 10:53:00
6:53 AM,68.0,66.0,93,30.07,10.0,Variable,3.5,-,0.00,,Mostly Cloudy,0,2012-12-15 11:53:00
7:53 AM,71.1,66.9,87,30.08,10.0,NNW,4.6,-,0.00,,Mostly Cloudy,340,2012-12-15 12:53:00
8:53 AM,73.4,66.2,78,30.10,10.0,Variable,3.5,-,N/A,,Mostly Cloudy,0,2012-12-15 13:53:00
9:53 AM,75.0,66.9,76,30.11,10.0,NE,5.8,-,N/A,,Mostly Cloudy,50,2012-12-15 14:53:00
10:53 AM,75.9,64.9,69,30.10,10.0,NE,13.8,19.6,N/A,,Mostly Cloudy,50,2012-12-15 15:53:00
11:53 AM,78.1,64.9,64,30.08,10.0,NE,10.4,-,N/A,,Mostly Cloudy,50,2012-12-15 16:53:00
12:53 PM,75.0,66.0,73,30.06,10.0,ENE,10.4,-,0.00,Rain,Light Rain,70,2012-12-15 17:53:00
1:53 PM,77.0,64.9,66,30.04,10.0,NE,11.5,-,0.00,,Mostly Cloudy,50,2012-12-15 18:53:00
2:53 PM,75.9,64.0,67,30.04,10.0,ENE,11.5,21.9,0.00,,Mostly Cloudy,70,2012-12-15 19:53:00
3:53 PM,71.1,66.0,84,30.05,10.0,NE,11.5,-,0.00,,Overcast,40,2012-12-15 20:53:00
4:53 PM,73.9,64.9,73,30.03,10.0,East,6.9,-,N/A,,Mostly Cloudy,80,2012-12-15 21:53:00
5:53 PM,73.9,63.0,68,30.05,10.0,NE,4.6,-,N/A,,Overcast,50,2012-12-15 22:53:00
6:53 PM,75.0,63.0,66,30.06,10.0,ENE,5.8,-,N/A,,Overcast,60,2012-12-15 23:53:00
7:53 PM,72.0,64.9,78,30.09,7.0,NE,10.4,-,0.00,Rain,Light Rain,50,2012-12-16 00:53:00
8:53 PM,72.0,66.0,81,30.09,10.0,NNE,4.6,-,0.04,,Overcast,30,2012-12-16 01:53:00
9:53 PM,71.1,66.9,87,30.08,10.0,North,3.5,-,0.03,,Mostly Cloudy,350,2012-12-16 02:53:00
10:53 PM,70.0,66.0,87,30.06,10.0,East,3.5,-,N/A,,Scattered Clouds,80,2012-12-16 03:53:00
11:53 PM,70.0,64.9,84,30.06,10.0,East,5.8,-,0.00,,Scattered Clouds,80,2012-12-16 04:53:00